Decatur, Alabama
Current Conditions -  °F | °C
As of 9:53 AM on Sunday 25 Jan 2015 (Local Time) from KDCU Reporting Station
Clear Clear  
Wind Chill: 41°   Ceiling: Unl
Heat Index: 46°   Visibility: 10mi
Dew Point: 36°   Wind: 10mph
Humidity: 68%   Direction: 170°S
Pressure: 29.84"   Gusts: NA
Location:  34.61°N, 86.98°W
Report Text: KDCU 251553Z AUTO 17009KT 10SM CLR 08/02 A2984 RMK AO2 SLP105 T00780022 $
Loading
Personal Weather Stations






























Interactive Weather Map New forecast layout! Learn more

10-Day Weather Forecast

Advertisements
Track Severe Weather on mobile